createdAt,value
2019-01-02T00:00:37.402Z,3.29
2019-01-02T00:01:37.393Z,3.31
2019-01-02T00:02:37.385Z,3.26
2019-01-02T00:03:37.371Z,3.26
2019-01-02T00:04:37.360Z,3.26
2019-01-02T00:05:37.350Z,3.24
2019-01-02T00:06:37.339Z,3.24
2019-01-02T00:07:37.328Z,3.17
2019-01-02T00:08:37.318Z,3.17
2019-01-02T00:09:37.308Z,3.13
2019-01-02T00:10:37.298Z,3.10
2019-01-02T00:11:37.286Z,3.15
2019-01-02T00:12:37.277Z,3.06
2019-01-02T00:13:37.266Z,3.10
2019-01-02T00:14:37.255Z,3.13
2019-01-02T00:15:37.244Z,3.08
2019-01-02T00:16:37.235Z,3.03
2019-01-02T00:17:37.223Z,2.99
2019-01-02T00:18:37.211Z,2.96
2019-01-02T00:19:37.206Z,3.05
2019-01-02T00:20:37.190Z,2.96
2019-01-02T00:21:37.179Z,2.96
2019-01-02T00:22:37.169Z,3.08
2019-01-02T00:23:37.159Z,3.03
2019-01-02T00:24:37.149Z,3.08
2019-01-02T00:25:37.137Z,3.17
2019-01-02T00:26:37.127Z,3.05
2019-01-02T00:27:37.116Z,3.10
2019-01-02T00:28:37.106Z,3.10
2019-01-02T00:29:37.096Z,3.00
2019-01-02T00:30:37.085Z,2.97
2019-01-02T00:31:37.074Z,2.99
2019-01-02T00:32:37.064Z,2.97
2019-01-02T00:33:37.053Z,3.00
2019-01-02T00:34:37.043Z,3.02
2019-01-02T00:35:37.034Z,2.95
2019-01-02T00:36:37.021Z,3.06
2019-01-02T00:37:37.012Z,2.97
2019-01-02T00:38:37.002Z,2.92
2019-01-02T00:39:36.990Z,3.00
2019-01-02T00:40:36.979Z,3.06
2019-01-02T00:41:36.970Z,3.02
2019-01-02T00:42:36.958Z,2.93
2019-01-02T00:43:36.950Z,2.96
2019-01-02T00:44:36.937Z,2.97
2019-01-02T00:45:36.927Z,2.87
2019-01-02T00:46:36.916Z,2.93
2019-01-02T00:47:36.957Z,2.89
2019-01-02T00:48:36.895Z,2.96
2019-01-02T00:49:36.883Z,2.96
2019-01-02T00:50:36.874Z,2.93
2019-01-02T00:51:36.862Z,2.93
2019-01-02T00:52:36.854Z,2.95
2019-01-02T00:53:36.870Z,2.95
2019-01-02T00:54:36.830Z,2.99
2019-01-02T00:55:36.820Z,2.96
2019-01-02T00:56:36.809Z,3.03
2019-01-02T00:57:36.800Z,3.02
2019-01-02T00:58:36.788Z,2.84
2019-01-02T00:59:36.780Z,2.87
2019-01-02T01:00:36.769Z,2.87
2019-01-02T01:01:36.762Z,2.87
2019-01-02T01:02:36.746Z,2.89
2019-01-02T01:03:36.736Z,2.96
2019-01-02T01:04:36.725Z,2.93
2019-01-02T01:05:36.714Z,2.92
2019-01-02T01:06:36.707Z,2.90
2019-01-02T01:07:36.695Z,2.84
2019-01-02T01:08:36.683Z,2.93
2019-01-02T01:09:36.671Z,2.96
2019-01-02T01:10:36.661Z,2.95
2019-01-02T01:11:36.651Z,3.05
2019-01-02T01:12:36.640Z,2.93
2019-01-02T01:13:36.630Z,2.92
2019-01-02T01:14:36.620Z,2.93
2019-01-02T01:15:36.609Z,2.85
2019-01-02T01:16:36.599Z,2.89
2019-01-02T01:17:36.587Z,2.90
2019-01-02T01:18:36.577Z,2.84
2019-01-02T01:19:36.568Z,2.95
2019-01-02T01:20:36.556Z,2.82
2019-01-02T01:21:36.546Z,2.90
2019-01-02T01:22:36.536Z,2.92
2019-01-02T01:23:36.525Z,2.92
2019-01-02T01:24:36.514Z,2.96
2019-01-02T01:25:36.503Z,3.05
2019-01-02T01:26:36.493Z,2.96
2019-01-02T01:27:36.483Z,3.03
2019-01-02T01:28:36.471Z,3.00
2019-01-02T01:29:36.463Z,2.90
2019-01-02T01:30:36.449Z,2.89
2019-01-02T01:31:36.438Z,2.85
2019-01-02T01:32:36.428Z,2.89
2019-01-02T01:33:36.418Z,2.87
2019-01-02T01:34:36.407Z,2.89
2019-01-02T01:35:36.397Z,2.96
2019-01-02T01:36:36.386Z,2.89
2019-01-02T01:37:36.376Z,2.97
2019-01-02T01:38:36.366Z,2.99
2019-01-02T01:39:36.355Z,3.02
2019-01-02T01:40:36.344Z,2.99
2019-01-02T01:41:36.333Z,2.95
2019-01-02T01:42:36.323Z,2.97
2019-01-02T01:43:36.312Z,2.90
2019-01-02T01:44:36.302Z,2.95
2019-01-02T01:45:36.292Z,2.95
2019-01-02T01:46:36.280Z,2.95
2019-01-02T01:47:36.271Z,2.90
2019-01-02T01:48:36.259Z,2.92
2019-01-02T01:49:36.250Z,2.84
2019-01-02T01:50:36.239Z,2.87
2019-01-02T01:51:36.227Z,2.89
2019-01-02T01:52:36.218Z,2.95
2019-01-02T01:53:36.213Z,2.90
2019-01-02T01:54:36.197Z,2.92
2019-01-02T01:55:36.188Z,2.87
2019-01-02T01:56:36.175Z,2.87
2019-01-02T01:57:36.166Z,2.89
2019-01-02T01:58:36.153Z,2.89
2019-01-02T01:59:36.147Z,2.84
2019-01-02T02:00:36.133Z,2.77
2019-01-02T02:01:36.122Z,2.75
2019-01-02T02:02:36.112Z,2.82
2019-01-02T02:03:36.101Z,2.74
2019-01-02T02:04:36.090Z,2.81
2019-01-02T02:05:36.081Z,2.84
2019-01-02T02:06:36.070Z,2.84
2019-01-02T02:07:36.059Z,2.78
2019-01-02T02:08:36.048Z,2.81
2019-01-02T02:09:36.037Z,2.84
2019-01-02T02:10:36.027Z,2.85
2019-01-02T02:11:36.016Z,2.85
2019-01-02T02:12:36.006Z,2.85
2019-01-02T02:13:35.996Z,2.81
2019-01-02T02:14:35.986Z,2.84
2019-01-02T02:15:35.974Z,2.92
2019-01-02T02:16:35.963Z,2.97
2019-01-02T02:17:35.953Z,3.02
2019-01-02T02:18:35.943Z,2.93
2019-01-02T02:19:35.931Z,2.99
2019-01-02T02:20:35.921Z,3.00
2019-01-02T02:21:35.911Z,2.95
2019-01-02T02:22:35.899Z,2.87
2019-01-02T02:23:35.888Z,2.95
2019-01-02T02:24:35.878Z,2.90
2019-01-02T02:25:35.868Z,2.85
2019-01-02T02:26:35.858Z,2.89
2019-01-02T02:27:35.846Z,2.90
2019-01-02T02:28:35.837Z,2.96
2019-01-02T02:29:35.825Z,2.90
2019-01-02T02:30:35.816Z,2.95
2019-01-02T02:31:35.806Z,2.93
2019-01-02T02:32:35.794Z,2.93
2019-01-02T02:33:35.784Z,2.89
2019-01-02T02:34:35.772Z,2.81
2019-01-02T02:35:35.762Z,2.84
2019-01-02T02:36:35.752Z,2.87
2019-01-02T02:37:35.740Z,2.93
2019-01-02T02:38:35.730Z,3.02
2019-01-02T02:39:35.719Z,2.92
2019-01-02T02:40:35.709Z,2.97
2019-01-02T02:41:35.699Z,3.03
2019-01-02T02:42:35.688Z,2.95
2019-01-02T02:43:35.678Z,2.90
2019-01-02T02:44:35.667Z,2.92
2019-01-02T02:45:35.656Z,2.96
2019-01-02T02:46:35.647Z,3.00
2019-01-02T02:47:35.634Z,2.97
2019-01-02T02:48:35.626Z,2.92
2019-01-02T02:49:35.616Z,2.99
2019-01-02T02:50:35.603Z,2.92
2019-01-02T02:51:35.593Z,2.90
2019-01-02T02:52:35.582Z,3.03
2019-01-02T02:53:35.570Z,2.99
2019-01-02T02:54:35.561Z,2.93
2019-01-02T02:55:35.550Z,2.99
2019-01-02T02:56:35.540Z,2.97
2019-01-02T02:57:35.530Z,3.02
2019-01-02T02:58:35.518Z,2.99
2019-01-02T02:59:35.509Z,3.00
2019-01-02T03:00:35.499Z,3.02
2019-01-02T03:01:35.492Z,3.08
2019-01-02T03:02:35.476Z,3.08
2019-01-02T03:03:35.467Z,3.08
2019-01-02T03:04:35.456Z,3.13
2019-01-02T03:05:35.446Z,3.11
2019-01-02T03:06:35.436Z,3.24
2019-01-02T03:07:35.424Z,3.11
2019-01-02T03:08:35.416Z,3.21
2019-01-02T03:09:35.403Z,3.21
2019-01-02T03:10:35.391Z,3.26
2019-01-02T03:11:35.381Z,3.10
2019-01-02T03:12:35.370Z,3.17
2019-01-02T03:13:35.361Z,3.10
2019-01-02T03:14:35.349Z,3.05
2019-01-02T03:15:35.338Z,3.08
2019-01-02T03:16:35.328Z,3.06
2019-01-02T03:17:35.317Z,3.13
2019-01-02T03:18:35.307Z,3.15
2019-01-02T03:19:35.296Z,3.11
2019-01-02T03:20:35.287Z,2.99
2019-01-02T03:21:35.274Z,3.05
2019-01-02T03:22:35.264Z,3.10
2019-01-02T03:23:35.254Z,3.10
2019-01-02T03:24:35.243Z,3.11
2019-01-02T03:25:35.232Z,3.21
2019-01-02T03:26:35.223Z,3.24
2019-01-02T03:27:35.213Z,3.29
2019-01-02T03:28:35.203Z,3.31
2019-01-02T03:29:35.193Z,3.21
2019-01-02T03:30:35.181Z,3.15
2019-01-02T03:31:35.171Z,3.21
2019-01-02T03:32:35.160Z,3.13
2019-01-02T03:33:35.154Z,3.18
2019-01-02T03:34:35.138Z,3.13
2019-01-02T03:35:35.129Z,3.26
2019-01-02T03:36:35.119Z,3.26
2019-01-02T03:37:35.106Z,3.20
2019-01-02T03:38:35.096Z,3.26
2019-01-02T03:39:35.089Z,3.21
2019-01-02T03:40:35.075Z,3.32
2019-01-02T03:41:35.063Z,3.28
2019-01-02T03:42:35.053Z,3.33
2019-01-02T03:43:35.043Z,3.39
2019-01-02T03:44:35.031Z,3.39
2019-01-02T03:45:35.022Z,3.35
2019-01-02T03:46:35.012Z,3.47
2019-01-02T03:47:35.000Z,3.50
2019-01-02T03:48:34.990Z,3.35
2019-01-02T03:49:34.979Z,3.45
2019-01-02T03:50:34.969Z,3.39
2019-01-02T03:51:34.958Z,3.40
2019-01-02T03:52:34.947Z,3.33
2019-01-02T03:53:34.936Z,3.33
2019-01-02T03:54:34.928Z,3.24
2019-01-02T03:55:34.915Z,3.29
2019-01-02T03:56:34.906Z,3.29
2019-01-02T03:57:34.894Z,3.28
2019-01-02T03:58:34.884Z,3.40
2019-01-02T03:59:34.874Z,3.26
2019-01-02T04:00:34.864Z,3.31
2019-01-02T04:01:34.853Z,3.13
2019-01-02T04:02:34.842Z,3.28
2019-01-02T04:03:34.853Z,3.26
2019-01-02T04:04:34.825Z,3.32
2019-01-02T04:05:34.809Z,3.26
2019-01-02T04:06:34.798Z,3.23
2019-01-02T04:07:34.789Z,3.29
2019-01-02T04:08:34.778Z,3.20
2019-01-02T04:09:34.767Z,3.17
2019-01-02T04:10:34.758Z,3.08
2019-01-02T04:11:34.746Z,3.17
2019-01-02T04:12:34.736Z,3.13
2019-01-02T04:13:34.728Z,3.11
2019-01-02T04:14:34.718Z,3.13
2019-01-02T04:15:34.710Z,3.02
2019-01-02T04:16:34.693Z,3.06
2019-01-02T04:17:34.684Z,3.00
2019-01-02T04:18:34.674Z,3.02
2019-01-02T04:19:34.663Z,3.08
2019-01-02T04:20:34.653Z,3.03
2019-01-02T04:21:34.642Z,3.08
2019-01-02T04:22:34.631Z,3.14
2019-01-02T04:23:34.619Z,2.97
2019-01-02T04:24:34.609Z,3.00
2019-01-02T04:25:34.598Z,3.05
2019-01-02T04:26:34.591Z,3.02
2019-01-02T04:27:34.578Z,2.97
2019-01-02T04:28:34.567Z,2.90
2019-01-02T04:29:34.557Z,2.87
2019-01-02T04:30:34.546Z,2.89
2019-01-02T04:31:34.535Z,2.85
2019-01-02T04:32:34.526Z,2.93
2019-01-02T04:33:34.514Z,2.84
2019-01-02T04:34:34.505Z,2.90
2019-01-02T04:35:34.494Z,2.96
2019-01-02T04:36:34.483Z,2.90
2019-01-02T04:37:34.472Z,2.82
2019-01-02T04:38:34.463Z,2.81
2019-01-02T04:39:34.451Z,2.89
2019-01-02T04:40:34.447Z,2.85
2019-01-02T04:41:34.428Z,2.87
2019-01-02T04:42:34.423Z,2.90
2019-01-02T04:43:34.408Z,2.95
2019-01-02T04:44:34.398Z,2.85
2019-01-02T04:45:34.387Z,2.90
2019-01-02T04:46:34.377Z,2.87
2019-01-02T04:47:34.366Z,2.87
2019-01-02T04:48:34.357Z,2.85
2019-01-02T04:49:34.346Z,2.84
2019-01-02T04:50:34.335Z,2.75
2019-01-02T04:51:34.324Z,2.72
2019-01-02T04:52:34.313Z,2.64
2019-01-02T04:53:34.303Z,2.56
2019-01-02T04:54:34.291Z,2.54
2019-01-02T04:55:34.281Z,2.49
2019-01-02T04:56:34.272Z,2.49
2019-01-02T04:57:34.260Z,2.48
2019-01-02T04:58:34.250Z,2.59
2019-01-02T04:59:34.239Z,2.49
2019-01-02T05:00:34.230Z,2.56
2019-01-02T05:01:34.218Z,2.53
2019-01-02T05:02:34.208Z,2.59
2019-01-02T05:03:34.196Z,2.61
2019-01-02T05:04:34.189Z,2.61
2019-01-02T05:05:34.179Z,2.66
2019-01-02T05:06:34.168Z,2.77
2019-01-02T05:07:34.154Z,2.79
2019-01-02T05:08:34.144Z,2.79
2019-01-02T05:09:34.133Z,2.87
2019-01-02T05:10:34.123Z,2.95
2019-01-02T05:11:34.112Z,2.97
2019-01-02T05:12:34.102Z,2.97
2019-01-02T05:13:34.093Z,2.97
2019-01-02T05:14:34.081Z,2.93
2019-01-02T05:15:34.069Z,2.99
2019-01-02T05:16:34.059Z,3.00
2019-01-02T05:17:34.048Z,3.13
2019-01-02T05:18:34.038Z,3.08
2019-01-02T05:19:34.026Z,3.15
2019-01-02T05:20:34.018Z,3.20
2019-01-02T05:21:34.012Z,3.20
2019-01-02T05:22:33.997Z,3.03
2019-01-02T05:23:33.985Z,3.13
2019-01-02T05:24:33.974Z,3.11
2019-01-02T05:25:33.962Z,3.06
2019-01-02T05:26:33.953Z,3.05
2019-01-02T05:27:33.943Z,3.02
2019-01-02T05:28:33.931Z,2.87
2019-01-02T05:29:33.923Z,2.92
2019-01-02T05:30:33.911Z,2.99
2019-01-02T05:31:33.901Z,3.03
2019-01-02T05:32:33.889Z,2.87
2019-01-02T05:33:33.880Z,2.85
2019-01-02T05:34:33.870Z,2.85
2019-01-02T05:35:33.856Z,2.87
2019-01-02T05:36:33.846Z,2.90
2019-01-02T05:37:33.835Z,2.90
2019-01-02T05:38:33.828Z,2.90
2019-01-02T05:39:33.815Z,2.90
2019-01-02T05:40:33.804Z,2.97
2019-01-02T05:41:33.797Z,2.92
2019-01-02T05:42:33.782Z,2.96
2019-01-02T05:43:33.773Z,2.95
2019-01-02T05:44:33.765Z,2.99
2019-01-02T05:45:33.752Z,3.00
2019-01-02T05:46:33.741Z,2.99
2019-01-02T05:47:33.731Z,3.00
2019-01-02T05:48:33.721Z,3.08
2019-01-02T05:49:33.710Z,2.99
2019-01-02T05:50:33.700Z,3.03
2019-01-02T05:51:33.686Z,3.05
2019-01-02T05:52:33.677Z,3.02
2019-01-02T05:53:33.666Z,3.06
2019-01-02T05:54:33.658Z,3.08
2019-01-02T05:55:33.647Z,3.08
2019-01-02T05:56:33.634Z,3.03
2019-01-02T05:57:33.626Z,3.06
2019-01-02T05:58:33.613Z,3.20
2019-01-02T05:59:33.602Z,3.15
2019-01-02T06:00:39.682Z,3.08
2019-01-02T06:01:34.579Z,3.06
2019-01-02T06:02:33.571Z,3.18
2019-01-02T06:03:33.559Z,3.14
2019-01-02T06:04:33.550Z,3.14
2019-01-02T06:05:33.539Z,3.13
2019-01-02T06:06:33.533Z,3.14
2019-01-02T06:07:33.520Z,3.21
2019-01-02T06:08:33.509Z,3.13
2019-01-02T06:09:33.498Z,3.13
2019-01-02T06:10:33.487Z,3.20
2019-01-02T06:11:33.476Z,3.13
2019-01-02T06:12:33.465Z,3.15
2019-01-02T06:13:33.454Z,3.18
2019-01-02T06:14:33.445Z,3.14
2019-01-02T06:15:33.437Z,3.23
2019-01-02T06:16:33.424Z,3.24
2019-01-02T06:17:33.412Z,3.21
2019-01-02T06:18:33.404Z,3.26
2019-01-02T06:19:33.391Z,3.39
2019-01-02T06:20:33.379Z,3.33
2019-01-02T06:21:33.370Z,3.35
2019-01-02T06:22:33.362Z,3.42
2019-01-02T06:23:33.348Z,3.35
2019-01-02T06:24:33.341Z,3.40
2019-01-02T06:25:33.328Z,3.43
2019-01-02T06:26:33.316Z,3.39
2019-01-02T06:27:33.306Z,3.39
2019-01-02T06:28:33.297Z,3.48
2019-01-02T06:29:33.289Z,3.52
2019-01-02T06:30:33.274Z,3.43
2019-01-02T06:31:33.267Z,3.48
2019-01-02T06:32:33.254Z,3.48
2019-01-02T06:33:33.243Z,3.51
2019-01-02T06:34:33.234Z,3.48
2019-01-02T06:35:33.222Z,3.47
2019-01-02T06:36:33.212Z,3.48
2019-01-02T06:37:33.204Z,3.48
2019-01-02T06:38:33.190Z,3.39
2019-01-02T06:39:33.180Z,3.35
2019-01-02T06:40:33.170Z,3.51
2019-01-02T06:41:33.161Z,3.54
2019-01-02T06:42:33.149Z,3.45
2019-01-02T06:43:33.137Z,3.48
2019-01-02T06:44:33.130Z,3.51
2019-01-02T06:45:33.119Z,3.50
2019-01-02T06:46:33.109Z,3.54
2019-01-02T06:47:33.098Z,3.48
2019-01-02T06:48:33.085Z,3.47
2019-01-02T06:49:33.075Z,3.51
2019-01-02T06:50:33.064Z,3.47
2019-01-02T06:51:33.054Z,3.57
2019-01-02T06:52:33.045Z,3.58
2019-01-02T06:53:33.033Z,3.54
2019-01-02T06:54:33.022Z,3.55
2019-01-02T06:55:33.015Z,3.57
2019-01-02T06:56:33.001Z,3.58
2019-01-02T06:57:32.998Z,3.65
2019-01-02T06:58:32.981Z,3.55
2019-01-02T06:59:32.969Z,3.47
2019-01-02T07:00:32.962Z,3.51
2019-01-02T07:01:32.950Z,3.47
2019-01-02T07:02:32.937Z,3.54
2019-01-02T07:03:32.929Z,3.55
2019-01-02T07:04:32.918Z,3.50
2019-01-02T07:05:32.907Z,3.48
2019-01-02T07:06:32.947Z,3.42
2019-01-02T07:07:32.885Z,3.39
2019-01-02T07:08:32.874Z,3.33
2019-01-02T07:09:32.864Z,3.39
2019-01-02T07:10:32.853Z,3.39
2019-01-02T07:11:32.843Z,3.33
2019-01-02T07:12:32.832Z,3.50
2019-01-02T07:13:32.820Z,3.45
2019-01-02T07:14:32.813Z,3.43
2019-01-02T07:15:32.800Z,3.47
2019-01-02T07:16:32.789Z,3.52
2019-01-02T07:17:32.779Z,3.54
2019-01-02T07:18:32.768Z,3.55
2019-01-02T07:19:32.757Z,3.52
2019-01-02T07:20:32.748Z,3.47
2019-01-02T07:21:32.737Z,3.50
2019-01-02T07:22:32.728Z,3.57
2019-01-02T07:23:32.716Z,3.52
2019-01-02T07:24:32.706Z,3.50
2019-01-02T07:25:32.695Z,3.58
2019-01-02T07:26:32.683Z,3.60
2019-01-02T07:27:32.673Z,3.54
2019-01-02T07:28:32.665Z,3.50
2019-01-02T07:29:32.651Z,3.66
2019-01-02T07:30:32.642Z,3.61
2019-01-02T07:31:32.631Z,3.50
2019-01-02T07:32:32.621Z,3.52
2019-01-02T07:33:32.609Z,3.62
2019-01-02T07:34:32.601Z,3.58
2019-01-02T07:35:32.587Z,3.58
2019-01-02T07:36:32.578Z,3.58
2019-01-02T07:37:32.568Z,3.54
2019-01-02T07:38:32.581Z,3.61
2019-01-02T07:39:32.548Z,3.58
2019-01-02T07:40:32.538Z,3.58
2019-01-02T07:41:32.525Z,3.54
2019-01-02T07:42:32.515Z,3.54
2019-01-02T07:43:32.504Z,3.57
2019-01-02T07:44:32.493Z,3.57
2019-01-02T07:45:32.485Z,3.60
2019-01-02T07:46:32.477Z,3.66
2019-01-02T07:47:32.464Z,3.69
2019-01-02T07:48:32.451Z,3.65
2019-01-02T07:49:32.442Z,3.51
2019-01-02T07:50:32.435Z,3.54
2019-01-02T07:51:32.419Z,3.48
2019-01-02T07:52:32.409Z,3.43
2019-01-02T07:53:32.401Z,3.40
2019-01-02T07:54:32.387Z,3.40
2019-01-02T07:55:32.376Z,3.36
2019-01-02T07:56:32.366Z,3.24
2019-01-02T07:57:32.355Z,3.21
2019-01-02T07:58:32.345Z,3.14
2019-01-02T07:59:32.335Z,3.15
2019-01-02T08:00:32.324Z,3.14
2019-01-02T08:01:32.317Z,3.26
2019-01-02T08:02:32.304Z,3.29
2019-01-02T08:03:32.292Z,3.32
2019-01-02T08:04:32.282Z,3.36
2019-01-02T08:05:32.274Z,3.40
2019-01-02T08:06:32.262Z,3.33
2019-01-02T08:07:32.249Z,3.35
2019-01-02T08:08:32.239Z,3.35
2019-01-02T08:09:32.229Z,3.40
2019-01-02T08:10:32.219Z,3.52
2019-01-02T08:11:32.207Z,3.48
2019-01-02T08:12:32.196Z,3.47
2019-01-02T08:13:32.186Z,3.60
2019-01-02T08:14:32.176Z,3.50
2019-01-02T08:15:32.166Z,3.57
2019-01-02T08:16:32.156Z,3.45
2019-01-02T08:17:32.146Z,3.60
2019-01-02T08:18:32.134Z,3.51
2019-01-02T08:19:32.123Z,3.50
2019-01-02T08:20:32.112Z,3.47
2019-01-02T08:21:32.102Z,3.52
2019-01-02T08:22:32.094Z,3.51
2019-01-02T08:23:32.081Z,3.48
2019-01-02T08:24:32.070Z,3.52
2019-01-02T08:25:32.059Z,3.48
2019-01-02T08:26:32.049Z,3.47
2019-01-02T08:27:32.040Z,3.50
2019-01-02T08:28:32.027Z,3.52
2019-01-02T08:29:32.018Z,3.48
2019-01-02T08:30:32.006Z,3.43
2019-01-02T08:31:32.005Z,3.40
2019-01-02T08:32:31.988Z,3.40
2019-01-02T08:33:31.978Z,3.26
2019-01-02T08:34:31.964Z,3.24
2019-01-02T08:35:31.955Z,3.26
2019-01-02T08:36:31.946Z,3.14
2019-01-02T08:37:31.933Z,3.17
2019-01-02T08:38:31.924Z,3.13
2019-01-02T08:39:31.912Z,3.11
2019-01-02T08:40:31.901Z,3.05
2019-01-02T08:41:31.894Z,3.03
2019-01-02T08:42:31.880Z,2.99
2019-01-02T08:43:31.868Z,3.02
2019-01-02T08:44:32.720Z,2.96
2019-01-02T08:45:31.848Z,2.84
2019-01-02T08:46:31.837Z,2.84
2019-01-02T08:47:31.832Z,2.85
2019-01-02T08:48:34.886Z,2.77
2019-01-02T08:49:31.809Z,2.74
2019-01-02T08:50:31.795Z,2.66
2019-01-02T08:51:31.783Z,2.63
2019-01-02T08:52:31.774Z,2.31
2019-01-02T08:53:31.764Z,2.10
2019-01-02T08:54:31.751Z,2.10
2019-01-02T08:55:31.741Z,1.98
2019-01-02T08:56:31.731Z,1.79
2019-01-02T08:57:31.721Z,1.80
2019-01-02T08:58:32.488Z,1.76
2019-01-02T08:59:31.699Z,1.63
2019-01-02T09:00:31.688Z,1.55
2019-01-02T09:01:31.722Z,1.48
2019-01-02T09:02:31.666Z,1.36
2019-01-02T09:03:31.657Z,1.45
2019-01-02T09:04:31.649Z,1.40
2019-01-02T09:05:31.638Z,1.34
2019-01-02T09:06:31.649Z,1.27
2019-01-02T09:07:31.615Z,1.18
2019-01-02T09:08:31.653Z,1.29
2019-01-02T09:09:31.601Z,1.22
2019-01-02T09:10:31.583Z,1.22
2019-01-02T09:11:31.572Z,1.23
2019-01-02T09:12:31.562Z,1.16
2019-01-02T09:13:31.551Z,1.06
2019-01-02T09:14:31.543Z,0.83
2019-01-02T09:15:31.534Z,0.78
2019-01-02T09:16:31.520Z,0.73
2019-01-02T09:17:31.508Z,0.79
2019-01-02T09:18:31.500Z,0.72
2019-01-02T09:19:31.490Z,0.72
2019-01-02T09:20:31.487Z,0.75
2019-01-02T09:21:31.466Z,0.83
2019-01-02T09:22:31.458Z,0.94
2019-01-02T09:23:31.446Z,1.05
2019-01-02T09:24:31.436Z,1.14
2019-01-02T09:25:31.427Z,1.18
2019-01-02T09:26:31.422Z,1.27
2019-01-02T09:27:31.409Z,1.23
2019-01-02T09:28:31.396Z,1.34
2019-01-02T09:29:31.383Z,1.51
2019-01-02T09:30:31.372Z,1.42
2019-01-02T09:31:31.371Z,1.40
2019-01-02T09:32:31.361Z,1.37
2019-01-02T09:33:31.341Z,1.47
2019-01-02T09:34:31.335Z,1.37
2019-01-02T09:35:31.320Z,1.44
2019-01-02T09:36:31.310Z,1.47
2019-01-02T09:37:31.297Z,1.47
2019-01-02T09:38:31.291Z,1.34
2019-01-02T09:39:31.281Z,1.48
2019-01-02T09:40:31.286Z,1.40
2019-01-02T09:41:31.261Z,1.45
2019-01-02T09:42:31.246Z,1.44
2019-01-02T09:43:31.235Z,1.44
2019-01-02T09:44:31.226Z,1.48
2019-01-02T09:45:31.214Z,1.45
2019-01-02T09:46:31.224Z,1.44
2019-01-02T09:47:31.295Z,1.52
2019-01-02T09:48:31.224Z,1.55
2019-01-02T09:49:31.173Z,1.60
2019-01-02T09:50:31.160Z,1.62
2019-01-02T09:51:31.151Z,1.65
2019-01-02T09:52:31.141Z,1.58
2019-01-02T09:53:31.132Z,1.55
2019-01-02T09:54:31.121Z,1.59
2019-01-02T09:55:31.107Z,1.59
2019-01-02T09:56:31.098Z,1.68
2019-01-02T09:57:31.086Z,1.60
2019-01-02T09:58:31.076Z,1.62
2019-01-02T09:59:31.073Z,1.68
2019-01-02T10:00:31.057Z,1.72
2019-01-02T10:01:31.044Z,1.68
2019-01-02T10:02:31.035Z,1.65
2019-01-02T10:03:31.024Z,1.77
2019-01-02T10:04:31.017Z,1.76
2019-01-02T10:05:31.010Z,1.65
2019-01-02T10:06:30.993Z,1.72
2019-01-02T10:07:30.982Z,1.77
2019-01-02T10:08:30.970Z,1.77
2019-01-02T10:09:30.960Z,1.72
2019-01-02T10:10:30.950Z,1.77
2019-01-02T10:11:30.939Z,1.81
2019-01-02T10:12:30.928Z,1.83
2019-01-02T10:13:30.924Z,1.77
2019-01-02T10:14:30.907Z,1.80
2019-01-02T10:15:30.898Z,1.84
2019-01-02T10:16:30.888Z,1.91
2019-01-02T10:17:30.875Z,2.03
2019-01-02T10:18:30.864Z,2.06
2019-01-02T10:19:30.860Z,1.98
2019-01-02T10:20:30.843Z,2.05
2019-01-02T10:21:30.833Z,2.05
2019-01-02T10:22:30.822Z,2.02
2019-01-02T10:23:30.813Z,2.10
2019-01-02T10:24:30.801Z,2.07
2019-01-02T10:25:30.792Z,2.07
2019-01-02T10:26:30.782Z,2.16
2019-01-02T10:27:30.770Z,2.24
2019-01-02T10:28:30.767Z,2.24
2019-01-02T10:29:30.769Z,2.23
2019-01-02T10:30:30.738Z,2.16
2019-01-02T10:31:30.728Z,2.16
2019-01-02T10:32:30.717Z,2.28
2019-01-02T10:33:30.706Z,2.43
2019-01-02T10:34:30.695Z,2.57
2019-01-02T10:35:30.684Z,2.67
2019-01-02T10:36:30.674Z,2.60
2019-01-02T10:37:30.665Z,2.66
2019-01-02T10:38:30.653Z,2.57
2019-01-02T10:39:30.642Z,2.71
2019-01-02T10:40:30.632Z,2.77
2019-01-02T10:41:30.621Z,2.77
2019-01-02T10:42:30.611Z,2.85
2019-01-02T10:43:30.601Z,2.93
2019-01-02T10:44:30.590Z,3.02
2019-01-02T10:45:30.583Z,3.15
2019-01-02T10:46:30.568Z,3.14
2019-01-02T10:47:30.560Z,3.14
2019-01-02T10:48:30.548Z,3.00
2019-01-02T10:49:30.537Z,3.06
2019-01-02T10:50:30.526Z,3.13
2019-01-02T10:51:30.515Z,3.05
2019-01-02T10:52:30.505Z,3.13
2019-01-02T10:53:30.495Z,3.24
2019-01-02T10:54:30.487Z,3.26
2019-01-02T10:55:30.471Z,3.40
2019-01-02T10:56:30.463Z,3.35
2019-01-02T10:57:30.454Z,3.35
2019-01-02T10:58:36.386Z,3.39
2019-01-02T10:59:31.428Z,3.42
2019-01-02T11:00:30.423Z,3.39
2019-01-02T11:01:30.408Z,3.51
2019-01-02T11:02:30.399Z,3.47
2019-01-02T11:03:30.386Z,3.48
2019-01-02T11:04:30.376Z,3.39
2019-01-02T11:05:30.366Z,3.39
2019-01-02T11:06:31.198Z,3.35
2019-01-02T11:07:30.343Z,3.48
2019-01-02T11:08:30.336Z,3.51
2019-01-02T11:09:30.322Z,3.57
2019-01-02T11:10:30.311Z,3.47
2019-01-02T11:11:30.304Z,3.50
2019-01-02T11:12:30.290Z,3.54
2019-01-02T11:13:30.281Z,3.42
2019-01-02T11:14:30.269Z,3.52
2019-01-02T11:15:30.258Z,3.48
2019-01-02T11:16:30.249Z,3.58
2019-01-02T11:17:30.236Z,3.68
2019-01-02T11:18:30.226Z,3.96
2019-01-02T11:19:30.217Z,4.06
2019-01-02T11:20:30.205Z,4.47
2019-01-02T11:21:30.195Z,4.52
2019-01-02T11:22:30.183Z,4.73
2019-01-02T11:23:30.172Z,5.75
2019-01-02T11:24:30.190Z,6.27
2019-01-02T11:25:30.151Z,6.74
2019-01-02T11:26:30.140Z,6.62
2019-01-02T11:27:30.130Z,7.64
2019-01-02T11:28:30.122Z,8.08
2019-01-02T11:29:30.109Z,7.64
2019-01-02T11:30:30.097Z,7.63
2019-01-02T11:31:30.087Z,7.74
2019-01-02T11:32:30.075Z,7.95
2019-01-02T11:33:30.066Z,8.45
2019-01-02T11:34:30.053Z,8.29
2019-01-02T11:35:30.049Z,7.67
2019-01-02T11:36:30.033Z,7.40
2019-01-02T11:37:30.023Z,6.19
2019-01-02T11:38:30.010Z,4.97
2019-01-02T11:39:30.000Z,4.32
2019-01-02T11:40:29.992Z,3.80
2019-01-02T11:41:29.978Z,3.72
2019-01-02T11:42:29.969Z,4.75
2019-01-02T11:43:29.960Z,5.68
2019-01-02T11:44:29.947Z,5.74
2019-01-02T11:45:29.937Z,4.94
2019-01-02T11:46:29.925Z,4.41
2019-01-02T11:47:29.915Z,4.00
2019-01-02T11:48:29.904Z,3.83
2019-01-02T11:49:29.892Z,3.65
2019-01-02T11:50:29.883Z,3.57
2019-01-02T11:51:29.871Z,3.48
2019-01-02T11:52:29.862Z,3.50
2019-01-02T11:53:29.851Z,3.40
2019-01-02T11:54:29.839Z,3.26
2019-01-02T11:55:29.827Z,3.21
2019-01-02T11:56:29.821Z,3.13
2019-01-02T11:57:29.808Z,3.06
2019-01-02T11:58:29.798Z,3.06
2019-01-02T11:59:29.790Z,3.10
2019-01-02T12:00:29.777Z,3.11
2019-01-02T12:01:29.765Z,3.23
2019-01-02T12:02:34.177Z,3.32
2019-01-02T12:03:29.744Z,3.29
2019-01-02T12:04:29.733Z,3.33
2019-01-02T12:05:29.722Z,5.09
2019-01-02T12:06:29.712Z,6.37
2019-01-02T12:07:29.706Z,6.61
2019-01-02T12:08:29.690Z,6.17
2019-01-02T12:09:29.681Z,6.77
2019-01-02T12:10:29.675Z,7.05
2019-01-02T12:11:29.658Z,7.03
2019-01-02T12:12:29.646Z,7.21
2019-01-02T12:13:29.636Z,7.25
2019-01-02T12:14:29.626Z,7.55
2019-01-02T12:15:29.615Z,7.28
2019-01-02T12:16:29.605Z,6.59
2019-01-02T12:17:29.593Z,6.38
2019-01-02T12:18:29.583Z,7.09
2019-01-02T12:19:29.572Z,7.55
2019-01-02T12:20:29.561Z,7.87
2019-01-02T12:21:29.550Z,7.74
2019-01-02T12:22:29.546Z,7.93
2019-01-02T12:23:29.530Z,8.41
2019-01-02T12:24:29.518Z,8.34
2019-01-02T12:25:29.508Z,8.19
2019-01-02T12:26:29.503Z,8.07
2019-01-02T12:27:29.487Z,8.55
2019-01-02T12:28:29.475Z,8.38
2019-01-02T12:29:29.464Z,8.52
2019-01-02T12:30:29.454Z,8.80
2019-01-02T12:31:29.444Z,8.63
2019-01-02T12:32:29.434Z,8.41
2019-01-02T12:33:29.421Z,8.19
2019-01-02T12:34:29.411Z,7.52
2019-01-02T12:35:29.403Z,5.94
2019-01-02T12:36:29.389Z,4.84
2019-01-02T12:37:29.379Z,4.34
2019-01-02T12:38:29.367Z,3.94
2019-01-02T12:39:29.360Z,3.90
2019-01-02T12:40:29.346Z,4.48
2019-01-02T12:41:29.335Z,5.58
2019-01-02T12:42:29.327Z,6.43
2019-01-02T12:43:29.313Z,6.98
2019-01-02T12:44:29.303Z,7.20
2019-01-02T12:45:29.296Z,6.54
2019-01-02T12:46:29.283Z,5.58
2019-01-02T12:47:29.271Z,5.03
2019-01-02T12:48:29.261Z,4.67
2019-01-02T12:49:29.251Z,4.36
2019-01-02T12:50:29.240Z,4.12
2019-01-02T12:51:29.228Z,3.97
2019-01-02T12:52:29.218Z,3.69
2019-01-02T12:53:29.208Z,3.68
2019-01-02T12:54:29.198Z,3.65
2019-01-02T12:55:29.188Z,3.54
2019-01-02T12:56:29.176Z,3.51
2019-01-02T12:57:29.165Z,3.48
2019-01-02T12:58:29.156Z,3.33
2019-01-02T12:59:29.148Z,3.31
2019-01-02T13:00:29.132Z,3.31
2019-01-02T13:01:29.123Z,3.26
2019-01-02T13:02:29.114Z,3.35
2019-01-02T13:03:29.100Z,3.26
2019-01-02T13:04:29.092Z,3.35
2019-01-02T13:05:29.078Z,3.31
2019-01-02T13:06:29.068Z,3.35
2019-01-02T13:07:29.058Z,3.26
2019-01-02T13:08:29.048Z,3.31
2019-01-02T13:09:29.038Z,3.40
2019-01-02T13:10:29.026Z,3.36
2019-01-02T13:11:29.016Z,3.40
2019-01-02T13:12:29.005Z,3.35
2019-01-02T13:13:28.995Z,3.32
2019-01-02T13:14:28.984Z,3.26
2019-01-02T13:15:28.974Z,3.28
2019-01-02T13:16:28.963Z,3.28
2019-01-02T13:17:28.951Z,3.11
2019-01-02T13:18:28.945Z,3.20